首页
METAR-TAF:

METAR-TAF

机场 :

日内瓦国际机场

日内瓦, 瑞士

纬度: 46-15N, 经度: 006-08E, 海拔: 420米

当前天气观测

该预报发布于16分钟前的14:20 UTC
风速6节,风向东转东北,在之间变化
温度 17°C
湿度 39%
气压 1027 hPa
能见度10公里或以上
1500米以下无云,无积雨云

METAR: LSGG 231420Z 06006KT 350V080 CAVOK 17/03 Q1027 NOSIG

时间: 16:36 (14:36 UTC)

预报

该预报发布于3小时和11分钟前的11:25 UTC
预报有效从23日的 12点(UTC)到 24日的 18点(UTC)
风速5节,风向东北
能见度10公里或以上
1500米以下无云,无积雨云
成为
从 24日的 10点(UTC)到 24日的 12点(UTC)
能见度10公里或以上
散云层高于4000英尺

TAF: LSGG 231125Z 2312/2418 04005KT CAVOK TX16/2315Z TN05/2406Z TX17/2415Z BECMG 2410/2412 9999 SCT040

超过4000个机场的气象观测和天气预报(METAR&TAF报告)。

可查询的气象台以黄色和红色小点在地图上表示。

将鼠标移到小点上方,可查看气象台名称。

然后点击查看天气观测和预报。

如需切换地图:点击带黑十字的绿色按钮放大地图;点击带横线的绿色按钮缩小地图;或者点击绿色箭头查看邻近地区的地图。


METAR-TAF: